Time;durP1;ratioP1;P1;durP2;ratioP2;P2;SDS_P1;SDS_P2;PMS_P1;PMS_P2;Temp;Humidity;BMP_temperature;BMP_pressure;BME280_temperature;BME280_humidity;BME280_pressure;Samples;Min_cycle;Max_cycle;Signal;HPM_P1;HPM_P2
2022/07/27 00:01:16;;;;;;;3.00;2.77;;;19.80;99.90;;;;;;4971591;28;20275;-52
2022/07/27 00:03:46;;;;;;;2.73;2.63;;;19.80;99.90;;;;;;4971126;28;20283;-53
2022/07/27 00:06:13;;;;;;;3.47;2.37;;;19.80;99.90;;;;;;4979080;28;20228;-53
2022/07/27 00:08:42;;;;;;;2.33;2.23;;;19.70;99.90;;;;;;4990256;28;20599;-53
2022/07/27 00:11:10;;;;;;;2.67;2.50;;;19.70;99.90;;;;;;4991230;28;20208;-52
2022/07/27 00:13:38;;;;;;;2.50;2.30;;;19.80;99.90;;;;;;4977196;28;20229;-53
2022/07/27 00:16:05;;;;;;;2.00;2.00;;;19.70;99.90;;;;;;4973765;28;20201;-53
2022/07/27 00:18:32;;;;;;;3.83;2.50;;;19.70;99.90;;;;;;4968153;28;20239;-53
2022/07/27 00:21:01;;;;;;;2.70;2.60;;;19.80;99.90;;;;;;4980522;28;20200;-53
2022/07/27 00:23:28;;;;;;;2.23;2.20;;;19.70;99.90;;;;;;4974808;28;20220;-53
2022/07/27 00:25:55;;;;;;;3.23;3.13;;;19.70;99.90;;;;;;4979265;28;20278;-53
2022/07/27 00:28:22;;;;;;;2.57;2.47;;;19.60;99.90;;;;;;4976190;28;20277;-53
2022/07/27 00:30:49;;;;;;;2.37;2.20;;;19.60;99.90;;;;;;4970054;28;20259;-53
2022/07/27 00:33:16;;;;;;;2.63;2.53;;;19.60;99.90;;;;;;4982028;28;20273;-52
2022/07/27 00:35:43;;;;;;;2.60;2.40;;;19.60;99.90;;;;;;4982036;28;20225;-53
2022/07/27 00:38:12;;;;;;;2.67;2.50;;;19.40;99.90;;;;;;4983173;28;20200;-53
2022/07/27 00:40:39;;;;;;;1.90;1.90;;;19.30;99.90;;;;;;4982183;28;20200;-53
2022/07/27 00:43:06;;;;;;;2.50;2.40;;;19.20;99.90;;;;;;4982488;28;20224;-53
2022/07/27 00:45:33;;;;;;;2.70;2.60;;;19.20;99.90;;;;;;4982568;28;20213;-52
2022/07/27 00:48:00;;;;;;;4.60;2.67;;;19.20;99.90;;;;;;4975123;28;20260;-53
2022/07/27 00:50:27;;;;;;;2.70;2.60;;;19.10;99.90;;;;;;4978872;28;20290;-52
2022/07/27 00:52:55;;;;;;;2.10;2.00;;;19.10;99.90;;;;;;4981139;28;20231;-53
2022/07/27 00:55:24;;;;;;;2.40;2.27;;;19.10;99.90;;;;;;4981905;28;20316;-53
2022/07/27 00:57:51;;;;;;;3.07;2.70;;;19.10;99.90;;;;;;4985192;28;20211;-53
2022/07/27 01:00:18;;;;;;;2.60;2.50;;;19.20;99.90;;;;;;4979433;28;20232;-53
2022/07/27 01:02:45;;;;;;;2.40;2.20;;;19.30;99.90;;;;;;4973236;28;20566;-53
2022/07/27 01:05:12;;;;;;;2.53;2.53;;;19.40;99.90;;;;;;4989637;28;20282;-52
2022/07/27 01:07:40;;;;;;;2.10;2.00;;;19.30;99.90;;;;;;4972810;28;20638;-52
2022/07/27 01:10:08;;;;;;;2.00;2.00;;;19.20;99.90;;;;;;4985625;28;20666;-53
2022/07/27 01:12:36;;;;;;;2.33;2.23;;;19.10;99.90;;;;;;4981688;28;20259;-53
2022/07/27 01:15:04;;;;;;;2.40;2.30;;;19.10;99.90;;;;;;4973400;28;20274;-53
2022/07/27 01:17:32;;;;;;;2.00;1.97;;;19.10;99.90;;;;;;4982418;28;20262;-53
2022/07/27 01:19:59;;;;;;;2.60;1.97;;;19.00;99.90;;;;;;4978545;28;20259;-53
2022/07/27 01:22:28;;;;;;;2.63;2.53;;;19.00;99.90;;;;;;4976824;28;20264;-53
2022/07/27 01:24:55;;;;;;;1.83;1.80;;;19.00;99.90;;;;;;4975349;28;20258;-53
2022/07/27 01:27:23;;;;;;;4.97;2.63;;;19.10;99.90;;;;;;4975232;28;20282;-52
2022/07/27 01:29:50;;;;;;;2.70;2.50;;;19.00;99.90;;;;;;4977343;28;20238;-52
2022/07/27 01:32:16;;;;;;;2.43;2.33;;;19.10;99.90;;;;;;4976711;28;20232;-52
2022/07/27 01:34:43;;;;;;;2.43;2.30;;;19.10;99.90;;;;;;4975316;28;20290;-53
2022/07/27 01:37:10;;;;;;;2.30;2.13;;;19.20;99.90;;;;;;4979070;28;20255;-53
2022/07/27 01:39:39;;;;;;;2.47;2.37;;;19.20;99.90;;;;;;4971132;28;20228;-53
2022/07/27 01:42:06;;;;;;;3.50;2.37;;;19.30;99.90;;;;;;4969171;28;20216;-52
2022/07/27 01:44:33;;;;;;;2.33;2.23;;;19.30;99.90;;;;;;4976278;28;20307;-53
2022/07/27 01:47:00;;;;;;;3.10;2.90;;;19.40;99.90;;;;;;4985342;28;20673;-53
2022/07/27 01:49:27;;;;;;;3.23;3.07;;;19.30;99.90;;;;;;4969371;28;20244;-52
2022/07/27 01:51:54;;;;;;;3.17;2.97;;;19.40;99.90;;;;;;4971567;28;20235;-53
2022/07/27 01:54:21;;;;;;;3.90;3.27;;;19.30;99.90;;;;;;4968302;28;20323;-53
2022/07/27 01:56:50;;;;;;;3.73;2.43;;;19.30;99.90;;;;;;4973201;28;20624;-53
2022/07/27 01:59:17;;;;;;;2.40;2.30;;;19.30;99.90;;;;;;4975846;28;20200;-53
2022/07/27 02:01:44;;;;;;;2.43;2.33;;;19.20;99.90;;;;;;4972044;28;20335;-53
2022/07/27 02:04:11;;;;;;;2.07;2.07;;;19.20;99.90;;;;;;4966412;28;20228;-53
2022/07/27 02:06:38;;;;;;;2.63;2.53;;;19.20;99.90;;;;;;4968547;28;21918;-52
2022/07/27 02:09:05;;;;;;;3.70;2.93;;;19.20;99.90;;;;;;4971137;28;20267;-53
2022/07/27 02:14:18;;;;;;;2.23;2.03;;;19.20;99.90;;;;;;4969018;28;20235;-53
2022/07/27 02:16:45;;;;;;;2.57;2.37;;;19.20;99.90;;;;;;4969981;28;20768;-53
2022/07/27 02:19:12;;;;;;;2.40;2.30;;;19.20;99.90;;;;;;4968770;28;20209;-52
2022/07/27 02:21:39;;;;;;;2.50;2.30;;;19.00;99.90;;;;;;4980446;28;20314;-53
2022/07/27 02:24:07;;;;;;;2.67;2.47;;;19.00;99.90;;;;;;4976754;28;20682;-53
2022/07/27 02:26:34;;;;;;;3.83;2.80;;;19.00;99.90;;;;;;4969941;28;20217;-52
2022/07/27 02:29:01;;;;;;;2.90;2.70;;;18.90;99.90;;;;;;4970985;28;20288;-53
2022/07/27 02:31:29;;;;;;;2.57;2.37;;;18.90;99.90;;;;;;4964478;28;20240;-52
2022/07/27 02:33:56;;;;;;;2.80;2.60;;;18.90;99.90;;;;;;4972500;28;20224;-53
2022/07/27 02:36:23;;;;;;;3.10;2.90;;;18.80;99.90;;;;;;4980018;28;20298;-52
2022/07/27 02:38:50;;;;;;;3.57;2.60;;;18.90;99.90;;;;;;4975420;28;20199;-52
2022/07/27 02:41:17;;;;;;;2.87;2.73;;;18.90;99.90;;;;;;4973711;28;20259;-52
2022/07/27 02:43:47;;;;;;;2.50;2.30;;;18.90;99.90;;;;;;4975972;28;20282;-53
2022/07/27 02:46:14;;;;;;;3.73;2.53;;;18.90;99.90;;;;;;4976991;28;20275;-53
2022/07/27 02:48:45;;;;;;;2.70;2.60;;;18.90;99.90;;;;;;4971061;28;20209;-52
2022/07/27 02:51:13;;;;;;;2.47;2.23;;;18.90;99.90;;;;;;4968617;28;20259;-53
2022/07/27 02:53:40;;;;;;;2.40;2.17;;;18.90;99.90;;;;;;4971573;28;20593;-53
2022/07/27 02:56:08;;;;;;;2.60;2.40;;;19.00;99.90;;;;;;4968411;28;20239;-53
2022/07/27 02:58:38;;;;;;;3.17;2.03;;;19.00;99.90;;;;;;4985057;28;20274;-53
2022/07/27 03:01:05;;;;;;;2.00;1.90;;;19.00;99.90;;;;;;4967421;28;20208;-53
2022/07/27 03:03:32;;;;;;;2.53;2.43;;;18.90;99.90;;;;;;4973451;28;20236;-53
2022/07/27 03:06:00;;;;;;;2.53;2.43;;;18.90;99.90;;;;;;4964579;28;20196;-53
2022/07/27 03:08:27;;;;;;;2.27;2.10;;;18.90;99.90;;;;;;4976667;28;20204;-53
2022/07/27 03:10:54;;;;;;;3.37;2.60;;;18.90;99.90;;;;;;4975123;28;20685;-52
2022/07/27 03:13:21;;;;;;;2.67;2.47;;;18.90;99.90;;;;;;4969390;28;21192;-53
2022/07/27 03:15:48;;;;;;;2.43;2.33;;;19.00;99.90;;;;;;4979248;28;20665;-53
2022/07/27 03:18:15;;;;;;;2.43;2.33;;;19.00;99.90;;;;;;4966140;28;20721;-53
2022/07/27 03:20:42;;;;;;;2.10;2.00;;;19.10;99.90;;;;;;4977022;28;20203;-53
2022/07/27 03:23:10;;;;;;;2.00;2.00;;;19.10;99.90;;;;;;4972460;28;20292;-53
2022/07/27 03:25:37;;;;;;;2.80;2.47;;;19.10;99.90;;;;;;4972037;28;20232;-53
2022/07/27 03:28:05;;;;;;;2.57;2.47;;;19.20;99.90;;;;;;4978755;28;20200;-53
2022/07/27 03:30:32;;;;;;;2.37;2.10;;;19.20;99.90;;;;;;4978059;28;20243;-53
2022/07/27 03:32:59;;;;;;;2.30;2.20;;;19.20;99.90;;;;;;4970947;28;20729;-53
2022/07/27 03:35:26;;;;;;;2.40;2.00;;;19.20;99.90;;;;;;4971727;28;20714;-52
2022/07/27 03:37:53;;;;;;;2.77;2.57;;;19.30;99.90;;;;;;4974729;28;20309;-53
2022/07/27 03:40:22;;;;;;;2.63;2.53;;;19.20;99.90;;;;;;4971110;28;20217;-53
2022/07/27 03:42:48;;;;;;;3.80;3.20;;;19.30;99.90;;;;;;4970600;28;20236;-52
2022/07/27 03:45:15;;;;;;;3.90;2.70;;;19.30;99.90;;;;;;4964010;28;20714;-52
2022/07/27 03:47:42;;;;;;;3.03;2.80;;;19.20;99.90;;;;;;4973053;28;20659;-53
2022/07/27 03:50:10;;;;;;;2.67;2.43;;;19.30;99.90;;;;;;4983281;28;20657;-53
2022/07/27 03:52:37;;;;;;;3.80;2.47;;;19.20;99.90;;;;;;4975382;28;20300;-53
2022/07/27 03:55:05;;;;;;;2.77;1.70;;;19.20;99.90;;;;;;4973819;28;20274;-52
2022/07/27 03:57:33;;;;;;;2.13;2.10;;;19.20;99.90;;;;;;4972225;28;20204;-53
2022/07/27 04:00:00;;;;;;;2.10;1.87;;;19.10;99.90;;;;;;4967946;28;20208;-53
2022/07/27 04:02:27;;;;;;;3.87;2.30;;;19.10;99.90;;;;;;4979972;28;20247;-52
2022/07/27 04:04:54;;;;;;;4.27;2.27;;;19.10;99.90;;;;;;4971632;28;20196;-53
2022/07/27 04:07:21;;;;;;;1.83;1.73;;;19.10;99.90;;;;;;4988661;28;20196;-53
2022/07/27 04:09:48;;;;;;;2.13;2.03;;;19.10;99.90;;;;;;4969647;28;20635;-53
2022/07/27 04:12:15;;;;;;;1.37;1.27;;;19.10;99.90;;;;;;4979510;28;20214;-53
2022/07/27 04:14:44;;;;;;;1.77;1.23;;;19.10;99.90;;;;;;4983770;28;20298;-53
2022/07/27 04:17:11;;;;;;;1.27;1.20;;;19.40;99.90;;;;;;4968091;28;20201;-53
2022/07/27 04:19:38;;;;;;;4.00;2.03;;;19.40;99.90;;;;;;4983169;28;20617;-54
2022/07/27 04:22:05;;;;;;;2.40;2.30;;;19.30;99.90;;;;;;4970056;28;20216;-53
2022/07/27 04:24:32;;;;;;;2.77;2.57;;;19.30;99.90;;;;;;4963781;28;20224;-53
2022/07/27 04:26:59;;;;;;;6.40;2.30;;;19.30;99.90;;;;;;4971247;28;20554;-53
2022/07/27 04:29:26;;;;;;;3.33;1.50;;;19.30;99.90;;;;;;4983698;28;20207;-53
2022/07/27 04:31:54;;;;;;;1.87;1.77;;;19.30;99.90;;;;;;4975232;28;20215;-53
2022/07/27 04:34:21;;;;;;;1.60;1.40;;;19.30;99.90;;;;;;4975580;28;20232;-52
2022/07/27 04:36:50;;;;;;;1.40;1.40;;;19.30;99.90;;;;;;4966725;28;20575;-53
2022/07/27 04:39:17;;;;;;;2.00;1.50;;;19.20;99.90;;;;;;4968860;28;20283;-52
2022/07/27 04:41:44;;;;;;;1.70;1.60;;;19.30;99.90;;;;;;4970911;28;20236;-52
2022/07/27 04:44:11;;;;;;;2.40;2.20;;;19.30;99.90;;;;;;4968907;28;20703;-53
2022/07/27 04:46:38;;;;;;;1.60;1.60;;;19.30;99.90;;;;;;4969503;28;20205;-52
2022/07/27 04:49:06;;;;;;;1.60;1.50;;;19.30;99.90;;;;;;4967885;28;20588;-52
2022/07/27 04:51:34;;;;;;;2.70;2.10;;;19.30;99.90;;;;;;4974643;28;20200;-53
2022/07/27 04:54:01;;;;;;;2.67;2.57;;;19.40;99.90;;;;;;4973039;28;20227;-53
2022/07/27 04:56:28;;;;;;;1.70;1.60;;;19.40;99.90;;;;;;4962572;28;20600;-53
2022/07/27 04:58:55;;;;;;;1.37;0.80;;;19.60;99.90;;;;;;4954980;28;20209;-53
2022/07/27 05:01:24;;;;;;;1.23;1.13;;;19.50;99.90;;;;;;4957048;28;20224;-53
2022/07/27 05:03:51;;;;;;;1.20;1.20;;;19.60;99.90;;;;;;4970707;28;20596;-52
2022/07/27 05:06:19;;;;;;;1.07;1.07;;;19.70;99.90;;;;;;4973098;28;20200;-53
2022/07/27 05:08:46;;;;;;;1.37;1.30;;;19.80;99.90;;;;;;4962311;28;20217;-52
2022/07/27 05:11:14;;;;;;;1.97;1.07;;;20.00;99.90;;;;;;4954869;28;20208;-53
2022/07/27 05:13:41;;;;;;;1.30;1.20;;;20.10;99.90;;;;;;4966702;28;20224;-53
2022/07/27 05:16:09;;;;;;;2.23;1.10;;;20.20;99.90;;;;;;4965503;28;20617;-51
2022/07/27 05:18:39;;;;;;;1.60;1.27;;;20.30;99.90;;;;;;4961057;28;20204;-51
2022/07/27 05:21:06;;;;;;;2.03;1.93;;;20.30;99.90;;;;;;4973179;28;20239;-52
2022/07/27 05:23:35;;;;;;;2.20;1.07;;;20.20;99.90;;;;;;4963843;28;20217;-51
2022/07/27 05:26:02;;;;;;;3.50;0.90;;;20.30;99.90;;;;;;4970354;28;20283;-51
2022/07/27 05:28:29;;;;;;;2.87;1.13;;;20.50;99.90;;;;;;4962949;28;20197;-52
2022/07/27 05:30:57;;;;;;;4.40;1.07;;;20.80;99.90;;;;;;4959431;28;20196;-52
2022/07/27 05:33:24;;;;;;;1.10;1.07;;;21.20;99.90;;;;;;4966596;28;20311;-54
2022/07/27 05:35:51;;;;;;;1.13;1.00;;;21.80;99.90;;;;;;4962166;28;20678;-54
2022/07/27 05:38:18;;;;;;;2.10;0.90;;;22.50;99.90;;;;;;4980226;28;21038;-53
2022/07/27 05:40:47;;;;;;;1.00;0.90;;;23.40;99.90;;;;;;4980926;28;20201;-54
2022/07/27 05:43:14;;;;;;;2.60;1.33;;;23.90;99.90;;;;;;4982549;28;20604;-53
2022/07/27 05:45:41;;;;;;;9.43;1.40;;;24.30;99.90;;;;;;4985360;28;20200;-54
2022/07/27 05:48:08;;;;;;;3.43;0.70;;;24.80;99.90;;;;;;4981644;28;20281;-54
2022/07/27 05:50:35;;;;;;;0.80;0.70;;;25.00;99.90;;;;;;4973080;28;20678;-54
2022/07/27 05:53:02;;;;;;;0.80;0.70;;;25.10;99.90;;;;;;4974866;28;20219;-54
2022/07/27 05:55:29;;;;;;;1.63;0.90;;;25.50;99.90;;;;;;4983015;28;20216;-54
2022/07/27 05:57:57;;;;;;;1.60;0.90;;;25.50;99.90;;;;;;4983903;28;20200;-53
2022/07/27 06:00:25;;;;;;;1.07;0.87;;;25.40;99.90;;;;;;4978633;28;20212;-54
2022/07/27 06:02:52;;;;;;;1.20;1.10;;;25.20;99.90;;;;;;4970261;28;20239;-54
2022/07/27 06:05:18;;;;;;;1.90;1.13;;;25.00;99.90;;;;;;4972077;28;20200;-54
2022/07/27 06:08:01;;;;;;;1.17;1.17;;;24.30;99.90;;;;;;4962993;28;20196;-54
2022/07/27 06:10:31;;;;;;;1.33;1.10;;;23.80;99.90;;;;;;4968252;28;20196;-54
2022/07/27 06:13:00;;;;;;;1.43;0.90;;;23.40;99.90;;;;;;4971847;28;20220;-54
2022/07/27 06:15:27;;;;;;;1.83;0.83;;;22.90;99.90;;;;;;4968791;28;20212;-54
2022/07/27 06:17:55;;;;;;;1.17;0.80;;;22.40;99.90;;;;;;4981011;28;20209;-54
2022/07/27 06:20:23;;;;;;;1.47;0.90;;;22.10;99.90;;;;;;4988520;28;20274;-54
2022/07/27 06:22:51;;;;;;;1.40;1.10;;;21.90;99.90;;;;;;4978419;28;20283;-53
2022/07/27 06:25:20;;;;;;;3.53;1.33;;;21.70;99.90;;;;;;4969497;28;20200;-53
2022/07/27 06:27:47;;;;;;;2.60;1.30;;;21.70;99.90;;;;;;4967711;28;20251;-53
2022/07/27 06:30:17;;;;;;;2.60;1.10;;;21.70;99.90;;;;;;4969805;28;20205;-53
2022/07/27 06:32:45;;;;;;;1.33;1.30;;;21.60;99.90;;;;;;4970668;28;20196;-52
2022/07/27 06:35:12;;;;;;;1.67;1.57;;;21.60;99.90;;;;;;4963890;28;20204;-53
2022/07/27 06:37:42;;;;;;;0.93;0.93;;;21.30;99.90;;;;;;4967597;28;20236;-53
2022/07/27 06:40:13;;;;;;;1.53;1.43;;;21.10;99.90;;;;;;4969731;28;20197;-53
2022/07/27 06:42:40;;;;;;;1.60;1.37;;;21.00;99.90;;;;;;4969356;28;20208;-52
2022/07/27 06:45:09;;;;;;;3.83;1.57;;;20.90;99.90;;;;;;4968827;28;20259;-53
2022/07/27 06:47:39;;;;;;;1.70;1.13;;;20.80;99.90;;;;;;4980628;28;20259;-52
2022/07/27 06:50:07;;;;;;;2.20;1.47;;;20.80;99.90;;;;;;4971234;28;20203;-53
2022/07/27 06:52:35;;;;;;;3.13;1.30;;;20.90;99.90;;;;;;4972918;28;20233;-53
2022/07/27 06:55:02;;;;;;;3.60;1.40;;;21.00;99.90;;;;;;4963554;28;20203;-53
2022/07/27 06:57:30;;;;;;;1.47;1.37;;;21.10;99.90;;;;;;4968090;28;20566;-53
2022/07/27 06:59:57;;;;;;;1.43;1.20;;;21.10;99.90;;;;;;4971033;28;20200;-53
2022/07/27 07:02:24;;;;;;;1.47;1.27;;;21.10;99.90;;;;;;4969509;28;20201;-53
2022/07/27 07:04:52;;;;;;;1.80;1.03;;;21.20;99.90;;;;;;4966374;28;20275;-53
2022/07/27 07:07:28;;;;;;;1.67;1.57;;;21.40;99.90;;;;;;4967907;28;20233;-53
2022/07/27 07:09:57;;;;;;;1.53;1.27;;;21.50;99.90;;;;;;4969253;28;20258;-53
2022/07/27 07:12:24;;;;;;;1.90;1.67;;;21.80;99.90;;;;;;4959770;28;20213;-53
2022/07/27 07:14:51;;;;;;;5.03;1.83;;;22.00;99.90;;;;;;4966389;28;20645;-53
2022/07/27 07:17:18;;;;;;;2.00;1.20;;;22.20;99.90;;;;;;4958008;28;20622;-53
2022/07/27 07:19:45;;;;;;;1.00;1.00;;;22.30;99.90;;;;;;4981356;28;20208;-53
2022/07/27 07:22:13;;;;;;;2.00;1.47;;;22.10;99.90;;;;;;4991804;28;20208;-53
2022/07/27 07:24:40;;;;;;;2.40;1.47;;;22.00;99.90;;;;;;4973970;28;20462;-52
2022/07/27 07:27:08;;;;;;;1.10;1.10;;;22.00;99.90;;;;;;4964658;28;20215;-52
2022/07/27 07:29:35;;;;;;;2.40;1.70;;;22.20;99.90;;;;;;4961276;28;20220;-52
2022/07/27 07:32:02;;;;;;;4.47;1.40;;;22.30;99.90;;;;;;4960213;28;20278;-52
2022/07/27 07:34:29;;;;;;;1.67;1.57;;;22.60;99.90;;;;;;4965547;28;20232;-52
2022/07/27 07:36:56;;;;;;;1.63;1.33;;;22.50;99.90;;;;;;4964881;28;20265;-52
2022/07/27 07:39:25;;;;;;;1.50;1.50;;;22.50;99.90;;;;;;4961956;28;20215;-52
2022/07/27 07:41:53;;;;;;;3.90;2.03;;;22.30;99.90;;;;;;4959604;28;20251;-52
2022/07/27 07:44:20;;;;;;;4.23;1.47;;;22.10;99.90;;;;;;4977837;28;20220;-52
2022/07/27 07:46:47;;;;;;;1.83;1.43;;;21.90;99.90;;;;;;4971321;28;20208;-52
2022/07/27 07:49:14;;;;;;;1.50;1.40;;;22.00;99.90;;;;;;4980206;28;20216;-52
2022/07/27 07:51:41;;;;;;;4.70;1.60;;;22.20;99.90;;;;;;4963440;28;20208;-52
2022/07/27 07:54:08;;;;;;;1.40;1.30;;;22.50;99.90;;;;;;4958965;28;20248;-52
2022/07/27 07:56:37;;;;;;;2.63;1.60;;;23.50;99.90;;;;;;4961134;28;20243;-53
2022/07/27 07:59:04;;;;;;;1.17;1.10;;;23.90;99.90;;;;;;4961900;28;20256;-52
2022/07/27 08:01:31;;;;;;;1.40;1.40;;;24.20;99.90;;;;;;4962251;28;20200;-52
2022/07/27 08:03:58;;;;;;;1.10;1.00;;;24.70;99.90;;;;;;4960387;28;20260;-52
2022/07/27 08:06:25;;;;;;;1.60;1.50;;;24.90;99.90;;;;;;4961322;28;20278;-53
2022/07/27 08:08:52;;;;;;;1.77;1.10;;;25.10;99.90;;;;;;4962246;28;20200;-52
2022/07/27 08:11:19;;;;;;;1.63;1.53;;;24.90;99.90;;;;;;4974050;28;20707;-52
2022/07/27 08:13:50;;;;;;;1.13;0.97;;;25.30;99.90;;;;;;4982384;28;20741;-52
2022/07/27 08:16:17;;;;;;;1.43;1.17;;;25.60;99.90;;;;;;4968927;28;20832;-52
2022/07/27 08:18:44;;;;;;;1.30;1.00;;;25.60;99.90;;;;;;4967626;28;20256;-52
2022/07/27 08:21:11;;;;;;;4.20;1.53;;;25.40;99.90;;;;;;4968667;28;20255;-53
2022/07/27 08:23:42;;;;;;;1.80;0.93;;;24.80;99.90;;;;;;4967929;28;20228;-53
2022/07/27 08:26:09;;;;;;;1.50;1.40;;;24.80;99.90;;;;;;4960531;28;20740;-53
2022/07/27 08:28:39;;;;;;;1.27;1.17;;;24.50;99.90;;;;;;4966263;28;20621;-53
2022/07/27 08:31:07;;;;;;;1.33;1.23;;;24.50;99.90;;;;;;4970218;28;20201;-53
2022/07/27 08:33:34;;;;;;;1.47;1.37;;;25.00;99.90;;;;;;4977449;28;20757;-53
2022/07/27 08:36:01;;;;;;;0.87;0.87;;;25.40;99.90;;;;;;4971853;28;20232;-53
2022/07/27 08:38:29;;;;;;;1.80;1.70;;;25.70;99.90;;;;;;4966503;28;20200;-53
2022/07/27 08:40:57;;;;;;;1.37;1.37;;;26.70;99.90;;;;;;4978780;28;20196;-53
2022/07/27 08:43:24;;;;;;;1.65;1.10;;;27.60;99.90;;;;;;4996732;23;21075;-51
2022/07/27 08:45:56;;;;;;;1.65;1.55;;;28.50;99.90;;;;;;4980012;28;20192;-52
2022/07/27 08:48:27;;;;;;;1.33;1.23;;;28.80;99.90;;;;;;4977089;28;20205;-52
2022/07/27 08:50:55;;;;;;;2.72;1.13;;;28.40;99.90;;;;;;4973947;28;20259;-52
2022/07/27 08:53:23;;;;;;;2.20;2.03;;;29.00;99.90;;;;;;4973730;28;20279;-51
2022/07/27 08:55:50;;;;;;;2.28;1.25;;;29.10;99.90;;;;;;4978552;28;20203;-52
2022/07/27 08:58:17;;;;;;;3.53;1.52;;;29.00;99.90;;;;;;4982069;28;20219;-51
2022/07/27 09:00:47;;;;;;;3.22;1.17;;;29.60;99.90;;;;;;4985687;28;20200;-52
2022/07/27 09:03:16;;;;;;;2.72;1.05;;;29.20;99.90;;;;;;4977307;28;20203;-52
2022/07/27 09:05:46;;;;;;;2.22;1.00;;;29.00;99.90;;;;;;4977540;28;20206;-52
2022/07/27 09:08:15;;;;;;;1.63;1.10;;;28.30;99.90;;;;;;4983121;28;20196;-51
2022/07/27 09:10:43;;;;;;;5.43;1.55;;;27.40;99.90;;;;;;4982298;28;20337;-52
2022/07/27 09:13:21;;;;;;;2.00;1.00;;;26.90;99.90;;;;;;4967050;28;20243;-51
2022/07/27 09:15:50;;;;;;;6.03;1.58;;;26.90;99.90;;;;;;4968441;28;20567;-51
2022/07/27 09:18:19;;;;;;;2.35;1.40;;;26.80;99.90;;;;;;4967131;28;20260;-51
2022/07/27 09:21:16;;;;;;;1.58;1.48;;;27.10;99.90;;;;;;4967950;28;20296;-52
2022/07/27 09:23:46;;;;;;;1.65;1.55;;;27.40;99.90;;;;;;4973296;28;20226;-52
2022/07/27 09:26:17;;;;;;;1.50;1.50;;;27.30;99.90;;;;;;4966857;28;20243;-52
2022/07/27 09:28:47;;;;;;;1.08;1.08;;;26.90;99.90;;;;;;4965871;28;20665;-51
2022/07/27 09:31:16;;;;;;;2.45;1.75;;;27.00;99.90;;;;;;4966521;28;20204;-51
2022/07/27 09:33:47;;;;;;;1.00;1.00;;;26.90;99.90;;;;;;4966914;28;20315;-51
2022/07/27 09:36:17;;;;;;;1.92;1.55;;;27.20;99.90;;;;;;4968483;28;20209;-51
2022/07/27 09:38:52;;;;;;;2.38;1.40;;;27.30;99.90;;;;;;4967615;28;20200;-51
2022/07/27 09:41:20;;;;;;;3.20;1.67;;;27.10;99.90;;;;;;4967710;28;20215;-52
2022/07/27 09:43:48;;;;;;;2.53;1.00;;;27.80;99.90;;;;;;4966382;28;20609;-51
2022/07/27 09:46:15;;;;;;;1.88;1.63;;;28.20;99.90;;;;;;4965596;28;20245;-51
2022/07/27 09:48:44;;;;;;;1.27;1.20;;;28.20;99.90;;;;;;4966183;28;20205;-51
2022/07/27 09:51:12;;;;;;;2.38;1.10;;;28.60;99.90;;;;;;4974588;28;20274;-52
2022/07/27 09:53:43;;;;;;;2.67;1.48;;;29.10;99.90;;;;;;4976485;28;20232;-51
2022/07/27 09:56:14;;;;;;;3.92;1.30;;;29.50;99.90;;;;;;4968847;28;20263;-52
2022/07/27 09:58:46;;;;;;;1.30;1.20;;;29.50;99.90;;;;;;4968311;28;20545;-52
2022/07/27 10:01:16;;;;;;;2.05;0.90;;;29.50;99.90;;;;;;4966734;28;20216;-52
2022/07/27 10:03:47;;;;;;;2.42;1.95;;;28.60;99.90;;;;;;4964709;28;20228;-52
2022/07/27 10:06:15;;;;;;;1.85;1.42;;;28.00;99.90;;;;;;4969721;28;20208;-52
2022/07/27 10:08:45;;;;;;;2.03;1.55;;;28.50;99.90;;;;;;4969106;28;20202;-52
2022/07/27 10:11:14;;;;;;;1.67;1.58;;;28.50;99.90;;;;;;4966226;28;20287;-51
2022/07/27 10:13:44;;;;;;;1.58;1.48;;;27.90;99.90;;;;;;4980027;28;20286;-52
2022/07/27 10:16:14;;;;;;;1.92;1.42;;;27.70;99.90;;;;;;4973689;28;20223;-52
2022/07/27 10:18:55;;;;;;;2.92;1.45;;;28.20;99.90;;;;;;4972816;28;21300;-51
2022/07/27 10:21:23;;;;;;;2.47;1.67;;;28.50;99.90;;;;;;4969598;28;20213;-52
2022/07/27 10:23:59;;;;;;;1.70;1.60;;;29.00;99.90;;;;;;4972540;28;20717;-52
2022/07/27 10:26:33;;;;;;;1.83;1.23;;;29.20;99.90;;;;;;4967543;28;20219;-51
2022/07/27 10:29:03;;;;;;;1.73;1.70;;;29.30;99.90;;;;;;4966641;28;20230;-52
2022/07/27 10:31:33;;;;;;;3.30;1.60;;;29.60;99.90;;;;;;4961489;28;20667;-52
2022/07/27 10:34:02;;;;;;;1.58;1.48;;;29.60;99.90;;;;;;4964858;28;20255;-52
2022/07/27 10:36:47;;;;;;;2.47;1.58;;;29.60;99.90;;;;;;4964912;28;20216;-52
2022/07/27 10:39:32;;;;;;;1.85;1.70;;;29.80;99.90;;;;;;4963421;28;20263;-51
2022/07/27 10:42:20;;;;;;;1.70;1.60;;;30.00;99.90;;;;;;4954348;28;20256;-52
2022/07/27 10:44:55;;;;;;;2.13;1.92;;;30.30;99.90;;;;;;4971000;28;20658;-51
2022/07/27 10:47:30;;;;;;;1.92;1.73;;;30.10;99.90;;;;;;4971116;28;20577;-51
2022/07/27 10:50:31;;;;;;;2.00;1.80;;;30.20;99.90;;;;;;4971148;28;20231;-52
2022/07/27 10:53:01;;;;;;;1.83;1.80;;;30.70;99.90;;;;;;4957595;28;20197;-52
2022/07/27 10:55:50;;;;;;;3.58;2.22;;;30.70;99.90;;;;;;4973474;28;20208;-52
2022/07/27 10:58:42;;;;;;;2.65;2.30;;;31.00;99.90;;;;;;4969324;28;20220;-51
2022/07/27 11:01:12;;;;;;;3.85;2.80;;;30.50;99.90;;;;;;4969669;28;20197;-51
2022/07/27 11:03:39;;;;;;;2.10;1.90;;;30.30;99.20;;;;;;4970938;28;20713;-51
2022/07/27 11:06:10;;;;;;;2.70;2.50;;;29.40;99.90;;;;;;4971084;28;20585;-52
2022/07/27 11:08:39;;;;;;;2.92;2.60;;;29.20;99.90;;;;;;4970949;28;20197;-51
2022/07/27 11:11:09;;;;;;;1.98;1.88;;;28.80;99.90;;;;;;4976370;28;20235;-51
2022/07/27 11:13:37;;;;;;;1.85;1.73;;;28.20;99.90;;;;;;4976109;28;20232;-51
2022/07/27 11:16:07;;;;;;;1.83;1.65;;;28.30;99.90;;;;;;4968017;28;20200;-51
2022/07/27 11:18:37;;;;;;;2.50;2.30;;;28.30;99.90;;;;;;4968647;28;20268;-52
2022/07/27 11:21:14;;;;;;;4.05;2.83;;;28.00;99.90;;;;;;4971775;28;20196;-52
2022/07/27 11:23:42;;;;;;;4.03;2.95;;;27.30;99.90;;;;;;4974366;28;20333;-52
2022/07/27 11:26:10;;;;;;;2.58;1.52;;;27.50;99.90;;;;;;4973970;28;20201;-52
2022/07/27 11:28:41;;;;;;;1.70;1.63;;;28.00;99.90;;;;;;4976660;28;20256;-52
2022/07/27 11:31:10;;;;;;;3.88;1.60;;;28.10;99.90;;;;;;4964724;28;20200;-52
2022/07/27 11:33:50;;;;;;;4.00;2.60;;;28.30;99.90;;;;;;4957650;28;20232;-52
2022/07/27 11:36:17;;;;;;;2.85;2.33;;;28.10;99.90;;;;;;4968332;28;20204;-52
2022/07/27 11:38:48;;;;;;;1.88;1.77;;;27.90;99.90;;;;;;4983571;28;20273;-51
2022/07/27 11:41:25;;;;;;;2.13;1.20;;;28.00;99.90;;;;;;4974960;28;20200;-52
2022/07/27 11:47:16;;;;;;;2.50;1.33;;;27.70;99.90;;;;;;4967491;28;20422;-52
2022/07/27 11:49:44;;;;;;;2.60;2.40;;;27.90;99.90;;;;;;4971390;28;20251;-51
2022/07/27 11:52:11;;;;;;;1.80;1.70;;;27.90;99.90;;;;;;4978388;28;20465;-51
2022/07/27 11:54:39;;;;;;;2.10;2.00;;;28.00;99.90;;;;;;4976526;28;20568;-51
2022/07/27 11:57:09;;;;;;;4.40;2.85;;;27.80;99.90;;;;;;4980200;28;20503;-51
2022/07/27 11:59:37;;;;;;;3.25;2.30;;;27.50;99.90;;;;;;4972742;28;20254;-51
2022/07/27 12:08:48;;;;;;;2.42;1.90;;;27.30;99.90;;;;;;4984826;28;20570;-52
2022/07/27 12:11:17;;;;;;;1.55;1.45;;;27.40;99.90;;;;;;4974373;28;20247;-52
2022/07/27 12:13:46;;;;;;;3.78;1.92;;;27.30;99.90;;;;;;4974817;28;20230;-52
2022/07/27 12:16:18;;;;;;;1.40;1.38;;;27.30;99.90;;;;;;4987464;28;20622;-52
2022/07/27 12:18:46;;;;;;;4.35;1.33;;;27.00;99.90;;;;;;4995281;28;20709;-51
2022/07/27 12:21:16;;;;;;;1.60;1.50;;;27.20;99.90;;;;;;4982977;28;20288;-52
2022/07/27 12:23:50;;;;;;;1.92;1.70;;;27.20;99.90;;;;;;4983770;28;20232;-52
2022/07/27 12:36:27;;;;;;;1.73;1.63;;;27.20;99.90;;;;;;4973175;28;20501;-51
2022/07/27 12:38:54;;;;;;;1.40;1.40;;;27.20;99.90;;;;;;4972452;28;20231;-52
2022/07/27 12:41:25;;;;;;;1.45;1.45;;;27.40;99.90;;;;;;4972437;28;20654;-52
2022/07/27 12:44:06;;;;;;;1.35;1.35;;;27.50;99.90;;;;;;4973186;28;20617;-51
2022/07/27 12:46:34;;;;;;;5.93;1.40;;;27.50;99.90;;;;;;4969433;28;20267;-51
2022/07/27 12:49:01;;;;;;;1.13;1.13;;;27.20;99.90;;;;;;4977937;28;20196;-51
2022/07/27 12:51:29;;;;;;;1.52;1.20;;;27.20;99.90;;;;;;4977030;28;20207;-51
2022/07/27 12:53:56;;;;;;;1.50;1.50;;;27.10;99.90;;;;;;4973664;28;20295;-51
2022/07/27 12:56:23;;;;;;;1.50;1.40;;;27.20;99.90;;;;;;4959186;28;20340;-51
2022/07/27 12:59:00;;;;;;;1.48;1.38;;;26.90;99.90;;;;;;4972959;28;20247;-51
2022/07/27 13:01:27;;;;;;;1.40;1.40;;;26.80;99.90;;;;;;4989361;28;20202;-52
2022/07/27 13:03:54;;;;;;;2.08;1.30;;;27.00;99.90;;;;;;4992234;28;20231;-52
2022/07/27 13:06:21;;;;;;;1.25;1.25;;;26.80;99.90;;;;;;4974156;28;20196;-52
2022/07/27 13:08:49;;;;;;;2.55;1.48;;;26.80;99.90;;;;;;4982192;28;20631;-52
2022/07/27 13:11:16;;;;;;;2.28;1.85;;;27.00;99.90;;;;;;4973015;28;20252;-52
2022/07/27 13:13:43;;;;;;;1.85;1.70;;;26.90;99.90;;;;;;4974804;28;20279;-51
2022/07/27 13:16:10;;;;;;;2.97;1.65;;;26.80;99.90;;;;;;4974310;28;20246;-51
2022/07/27 13:18:40;;;;;;;3.45;1.52;;;26.80;99.90;;;;;;4979869;28;20228;-51